createdAt,value
2018-11-06T00:02:13.584Z,100373.23
2018-11-06T00:04:47.767Z,100362.89
2018-11-06T00:07:16.756Z,100372.19
2018-11-06T00:09:45.808Z,100374.67
2018-11-06T00:12:14.784Z,100379.75
2018-11-06T00:14:43.702Z,100377.22
2018-11-06T00:17:12.695Z,100376.11
2018-11-06T00:19:41.604Z,100384.99
2018-11-06T00:22:10.554Z,100379.41
2018-11-06T00:24:39.518Z,100378.66
2018-11-06T00:27:08.625Z,100378.66
2018-11-06T00:29:37.733Z,100374.25
2018-11-06T00:32:06.717Z,100375.75
2018-11-06T00:34:35.669Z,100373.95
2018-11-06T00:37:04.648Z,100374.25
2018-11-06T00:39:33.598Z,100370.48
2018-11-06T00:42:02.608Z,100374.33
2018-11-06T00:44:31.565Z,100367.42
2018-11-06T00:47:00.521Z,100366.88
2018-11-06T00:49:29.522Z,100362.09
2018-11-06T00:51:58.433Z,100373.63
2018-11-06T00:54:27.451Z,100375.91
2018-11-06T00:56:56.367Z,100376.80
2018-11-06T00:59:25.308Z,100365.80
2018-11-06T01:01:54.317Z,100370.34
2018-11-06T01:04:23.285Z,100373.98
2018-11-06T01:06:52.251Z,100372.24
2018-11-06T01:09:21.372Z,100372.21
2018-11-06T01:11:50.330Z,100363.48
2018-11-06T01:14:19.445Z,100360.78
2018-11-06T01:16:48.407Z,100359.09
2018-11-06T01:19:17.331Z,100357.25
2018-11-06T01:21:46.270Z,100362.47
2018-11-06T01:24:15.237Z,100359.83
2018-11-06T01:26:44.155Z,100360.07
2018-11-06T01:29:13.110Z,100362.09
2018-11-06T01:31:42.011Z,100364.04
2018-11-06T01:34:10.986Z,100358.00
2018-11-06T01:36:39.988Z,100362.41
2018-11-06T01:39:09.743Z,100356.92
2018-11-06T01:41:38.715Z,100347.09
2018-11-06T01:44:08.049Z,100337.11
2018-11-06T01:46:37.173Z,100338.06
2018-11-06T01:49:06.260Z,100344.86
2018-11-06T01:51:35.363Z,100345.94
2018-11-06T01:54:04.417Z,100345.14
2018-11-06T01:56:33.421Z,100349.94
2018-11-06T01:59:02.478Z,100352.33
2018-11-06T02:01:31.506Z,100347.50
2018-11-06T02:04:00.490Z,100355.07
2018-11-06T02:06:29.421Z,100349.89
2018-11-06T02:08:58.341Z,100352.39
2018-11-06T02:11:27.298Z,100349.20
2018-11-06T02:13:56.214Z,100348.45
2018-11-06T02:16:25.196Z,100359.31
2018-11-06T02:18:54.127Z,100353.06
2018-11-06T02:21:23.079Z,100347.57
2018-11-06T02:23:52.014Z,100347.01
2018-11-06T02:26:20.975Z,100352.13
2018-11-06T02:28:49.940Z,100351.64
2018-11-06T02:31:18.899Z,100340.28
2018-11-06T02:33:47.860Z,100350.45
2018-11-06T02:36:16.761Z,100353.08
2018-11-06T02:38:45.878Z,100352.33
2018-11-06T02:41:14.969Z,100352.93
2018-11-06T02:43:43.919Z,100363.16
2018-11-06T02:46:12.927Z,100362.27
2018-11-06T02:48:41.842Z,100365.41
2018-11-06T02:51:11.548Z,100369.95
2018-11-06T02:53:40.534Z,100371.61
2018-11-06T02:56:09.545Z,100375.58
2018-11-06T02:58:38.469Z,100366.27
2018-11-06T03:01:07.621Z,100366.45
2018-11-06T03:03:42.325Z,100360.42
2018-11-06T03:06:12.590Z,100363.64
2018-11-06T03:08:42.036Z,100364.59
2018-11-06T03:11:11.051Z,100373.38
2018-11-06T03:13:40.040Z,100373.25
2018-11-06T03:16:09.002Z,100370.83
2018-11-06T03:18:37.995Z,100375.92
2018-11-06T03:21:06.936Z,100374.30
2018-11-06T03:23:35.868Z,100369.61
2018-11-06T03:26:04.933Z,100371.24
2018-11-06T03:28:33.935Z,100376.55
2018-11-06T03:31:02.879Z,100379.30
2018-11-06T03:33:31.851Z,100376.66
2018-11-06T03:36:00.835Z,100382.75
2018-11-06T03:38:29.905Z,100388.39
2018-11-06T03:40:59.022Z,100373.71
2018-11-06T03:43:28.040Z,100372.63
2018-11-06T03:45:57.009Z,100370.70
2018-11-06T03:48:26.034Z,100372.95
2018-11-06T03:50:55.131Z,100372.22
2018-11-06T03:53:24.108Z,100371.52
2018-11-06T03:55:53.050Z,100376.72
2018-11-06T03:58:22.002Z,100383.24
2018-11-06T04:00:50.981Z,100379.12
2018-11-06T04:03:19.959Z,100389.30
2018-11-06T04:05:48.913Z,100378.01
2018-11-06T04:08:17.847Z,100387.36
2018-11-06T04:10:46.833Z,100395.13
2018-11-06T04:13:15.732Z,100386.20
2018-11-06T04:15:44.722Z,100383.58
2018-11-06T04:18:13.657Z,100394.98
2018-11-06T04:20:42.593Z,100383.03
2018-11-06T04:23:11.538Z,100388.63
2018-11-06T04:25:40.597Z,100397.04
2018-11-06T04:28:09.581Z,100396.63
2018-11-06T04:30:38.509Z,100396.27
2018-11-06T04:33:07.447Z,100398.71
2018-11-06T04:35:36.419Z,100391.68
2018-11-06T04:38:05.398Z,100393.73
2018-11-06T04:40:34.387Z,100394.66
2018-11-06T04:43:03.355Z,100397.88
2018-11-06T04:45:32.310Z,100397.75
2018-11-06T04:48:01.269Z,100392.47
2018-11-06T04:50:30.223Z,100393.70
2018-11-06T04:52:59.181Z,100395.09
2018-11-06T04:55:28.170Z,100392.58
2018-11-06T04:57:57.132Z,100397.71
2018-11-06T05:00:26.102Z,100402.89
2018-11-06T05:02:55.036Z,100395.83
2018-11-06T05:05:23.966Z,100397.23
2018-11-06T05:07:52.881Z,100406.14
2018-11-06T05:10:22.709Z,100402.78
2018-11-06T05:12:51.653Z,100402.64
2018-11-06T05:15:20.589Z,100397.77
2018-11-06T05:17:49.533Z,100403.18
2018-11-06T05:20:18.711Z,100401.30
2018-11-06T05:22:47.969Z,100405.05
2018-11-06T05:25:16.995Z,100419.21
2018-11-06T05:27:45.941Z,100420.33
2018-11-06T05:30:14.942Z,100425.05
2018-11-06T05:32:44.620Z,100436.38
2018-11-06T05:35:13.620Z,100441.70
2018-11-06T05:37:42.604Z,100446.10
2018-11-06T05:40:51.237Z,100451.70
2018-11-06T05:43:20.143Z,100462.53
2018-11-06T05:45:49.154Z,100476.70
2018-11-06T05:48:18.160Z,100476.25
2018-11-06T05:50:47.301Z,100466.11
2018-11-06T05:53:17.683Z,100465.44
2018-11-06T05:55:46.844Z,100468.22
2018-11-06T05:58:15.865Z,100458.29
2018-11-06T06:00:44.839Z,100460.52
2018-11-06T06:03:13.772Z,100463.73
2018-11-06T06:05:42.749Z,100467.34
2018-11-06T06:08:11.683Z,100469.19
2018-11-06T06:10:40.626Z,100472.02
2018-11-06T06:13:09.637Z,100475.30
2018-11-06T06:15:38.597Z,100480.42
2018-11-06T06:18:07.562Z,100484.22
2018-11-06T06:20:36.503Z,100482.24
2018-11-06T06:23:05.852Z,100484.92
2018-11-06T06:25:34.825Z,100483.80
2018-11-06T06:28:03.754Z,100483.23
2018-11-06T06:30:32.721Z,100484.23
2018-11-06T06:33:01.622Z,100482.48
2018-11-06T06:35:30.595Z,100485.52
2018-11-06T06:37:59.582Z,100492.40
2018-11-06T06:40:28.518Z,100491.32
2018-11-06T06:42:57.459Z,100490.33
2018-11-06T06:45:26.427Z,100502.41
2018-11-06T06:47:55.436Z,100511.21
2018-11-06T06:50:24.372Z,100518.89
2018-11-06T06:52:53.296Z,100525.43
2018-11-06T06:55:22.211Z,100521.08
2018-11-06T06:57:51.228Z,100511.33
2018-11-06T07:00:21.453Z,100504.64
2018-11-06T07:02:50.526Z,100508.03
2018-11-06T07:05:20.663Z,100501.03
2018-11-06T07:07:49.632Z,100507.66
2018-11-06T07:10:19.995Z,100514.59
2018-11-06T07:12:49.554Z,100512.66
2018-11-06T07:15:19.652Z,100515.33
2018-11-06T07:17:49.458Z,100515.61
2018-11-06T07:20:19.754Z,100518.73
2018-11-06T07:22:48.709Z,100515.78
2018-11-06T07:25:17.688Z,100523.38
2018-11-06T07:27:47.699Z,100530.50
2018-11-06T07:30:22.052Z,100540.12
2018-11-06T07:32:51.116Z,100540.81
2018-11-06T07:35:20.593Z,100538.66
2018-11-06T07:37:49.495Z,100546.53
2018-11-06T07:40:19.753Z,100546.46
2018-11-06T07:42:48.717Z,100541.48
2018-11-06T07:45:19.022Z,100549.34
2018-11-06T07:47:47.957Z,100551.46
2018-11-06T07:50:17.117Z,100546.31
2018-11-06T07:52:46.171Z,100550.80
2018-11-06T07:55:17.386Z,100538.65
2018-11-06T07:57:46.489Z,100544.33
2018-11-06T08:00:18.741Z,100549.48
2018-11-06T08:02:48.436Z,100551.23
2018-11-06T08:05:17.848Z,100543.91
2018-11-06T08:07:47.802Z,100546.08
2018-11-06T08:10:16.775Z,100551.08
2018-11-06T08:12:47.296Z,100554.55
2018-11-06T08:15:16.341Z,100554.14
2018-11-06T08:17:45.714Z,100556.97
2018-11-06T08:20:15.045Z,100562.73
2018-11-06T08:22:43.987Z,100554.58
2018-11-06T08:25:14.087Z,100550.22
2018-11-06T08:27:43.768Z,100549.19
2018-11-06T08:30:13.277Z,100550.61
2018-11-06T08:32:42.749Z,100559.16
2018-11-06T08:35:13.854Z,100563.41
2018-11-06T08:37:43.014Z,100566.74
2018-11-06T08:40:13.288Z,100560.85
2018-11-06T08:42:42.444Z,100563.30
2018-11-06T08:45:12.495Z,100565.92
2018-11-06T08:47:42.554Z,100559.47
2018-11-06T08:50:13.028Z,100563.30
2018-11-06T08:52:42.281Z,100567.90
2018-11-06T08:55:12.387Z,100569.23
2018-11-06T08:57:41.892Z,100566.56
2018-11-06T09:00:12.852Z,100567.11
2018-11-06T09:02:42.447Z,100570.96
2018-11-06T09:05:12.788Z,100568.45
2018-11-06T09:07:41.818Z,100569.85
2018-11-06T09:10:11.898Z,100575.27
2018-11-06T09:12:41.058Z,100570.42
2018-11-06T09:15:12.688Z,100570.14
2018-11-06T09:17:41.675Z,100565.69
2018-11-06T09:20:11.962Z,100570.14
2018-11-06T09:22:41.063Z,100569.70
2018-11-06T09:25:11.714Z,100575.38
2018-11-06T09:27:41.640Z,100583.92
2018-11-06T09:30:12.829Z,100589.45
2018-11-06T09:32:41.767Z,100592.55
2018-11-06T09:35:11.732Z,100588.36
2018-11-06T09:37:41.190Z,100593.52
2018-11-06T09:40:12.326Z,100583.20
2018-11-06T09:42:41.311Z,100587.61
2018-11-06T09:45:10.980Z,100590.63
2018-11-06T09:47:39.929Z,100589.39
2018-11-06T09:50:11.204Z,100586.58
2018-11-06T09:52:41.302Z,100587.14
2018-11-06T09:55:10.318Z,100590.36
2018-11-06T09:57:39.281Z,100592.72
2018-11-06T10:00:11.158Z,100598.09
2018-11-06T10:02:40.130Z,100595.59
2018-11-06T10:05:09.968Z,100596.69
2018-11-06T10:07:39.181Z,100592.95
2018-11-06T10:10:10.218Z,100584.78
2018-11-06T10:12:39.588Z,100576.72
2018-11-06T10:15:10.526Z,100585.95
2018-11-06T10:17:40.448Z,100585.25
2018-11-06T10:20:10.243Z,100587.16
2018-11-06T10:22:39.237Z,100595.66
2018-11-06T10:25:08.537Z,100586.73
2018-11-06T10:27:38.248Z,100579.84
2018-11-06T10:30:10.337Z,100574.31
2018-11-06T10:32:39.298Z,100569.00
2018-11-06T10:35:08.811Z,100569.34
2018-11-06T10:37:37.819Z,100559.90
2018-11-06T10:40:09.770Z,100561.56
2018-11-06T10:42:38.791Z,100562.36
2018-11-06T10:45:08.284Z,100573.19
2018-11-06T10:47:37.529Z,100563.27
2018-11-06T10:50:09.022Z,100562.91
2018-11-06T10:52:38.012Z,100557.68
2018-11-06T10:55:07.588Z,100555.12
2018-11-06T10:57:37.835Z,100552.55
2018-11-06T11:00:16.496Z,100555.66
2018-11-06T11:02:50.915Z,100551.64
2018-11-06T11:05:20.800Z,100549.89
2018-11-06T11:07:49.782Z,100551.66
2018-11-06T11:10:18.802Z,100550.17
2018-11-06T11:12:47.772Z,100550.73
2018-11-06T11:15:16.741Z,100554.70
2018-11-06T11:17:45.728Z,100562.55
2018-11-06T11:20:15.114Z,100563.90
2018-11-06T11:22:44.098Z,100564.20
2018-11-06T11:25:14.354Z,100567.82
2018-11-06T11:27:43.828Z,100569.48
2018-11-06T11:30:14.764Z,100566.58
2018-11-06T11:32:46.449Z,100556.64
2018-11-06T11:35:15.728Z,100560.64
2018-11-06T11:37:45.199Z,100556.39
2018-11-06T11:40:15.681Z,100558.69
2018-11-06T11:42:44.666Z,100554.95
2018-11-06T11:45:14.580Z,100549.02
2018-11-06T11:47:43.565Z,100549.91
2018-11-06T11:50:13.693Z,100556.94
2018-11-06T11:52:42.692Z,100554.30
2018-11-06T11:55:11.773Z,100555.21
2018-11-06T11:57:41.112Z,100557.03
2018-11-06T12:00:12.377Z,100553.75
2018-11-06T12:02:41.348Z,100557.30
2018-11-06T12:05:10.970Z,100553.72
2018-11-06T12:07:40.160Z,100548.98
2018-11-06T12:10:10.367Z,100556.42
2018-11-06T12:12:39.768Z,100555.20
2018-11-06T12:15:12.204Z,100544.70
2018-11-06T12:17:41.724Z,100545.59
2018-11-06T12:20:11.310Z,100543.95
2018-11-06T12:22:41.179Z,100541.50
2018-11-06T12:25:10.705Z,100537.78
2018-11-06T12:27:39.561Z,100534.60
2018-11-06T12:30:10.387Z,100544.45
2018-11-06T12:32:40.005Z,100546.39
2018-11-06T12:35:09.900Z,100538.95
2018-11-06T12:37:39.244Z,100539.50
2018-11-06T12:40:09.666Z,100540.64
2018-11-06T12:42:39.300Z,100533.60
2018-11-06T12:45:10.206Z,100533.20
2018-11-06T12:47:39.234Z,100533.48
2018-11-06T12:50:08.701Z,100537.08
2018-11-06T12:52:37.747Z,100543.19
2018-11-06T12:55:07.945Z,100541.03
2018-11-06T12:57:37.677Z,100537.12
2018-11-06T13:00:09.881Z,100536.96
2018-11-06T13:02:38.830Z,100538.64
2018-11-06T13:05:08.060Z,100539.48
2018-11-06T13:07:37.950Z,100536.14
2018-11-06T13:10:07.083Z,100535.13
2018-11-06T13:12:36.076Z,100535.36
2018-11-06T13:15:05.971Z,100535.85
2018-11-06T13:17:35.412Z,100529.95
2018-11-06T13:20:05.517Z,100532.66
2018-11-06T13:22:34.595Z,100528.69
2018-11-06T13:25:03.707Z,100512.23
2018-11-06T13:27:32.735Z,100518.27
2018-11-06T13:30:01.755Z,100509.05
2018-11-06T13:32:30.686Z,100505.22
2018-11-06T13:34:59.647Z,100515.14
2018-11-06T13:37:28.654Z,100512.97
2018-11-06T13:39:57.605Z,100518.88
2018-11-06T13:42:26.635Z,100510.02
2018-11-06T13:44:55.815Z,100508.20
2018-11-06T13:47:24.597Z,100510.84
2018-11-06T13:49:53.590Z,100509.17
2018-11-06T13:52:22.537Z,100512.22
2018-11-06T13:54:51.550Z,100517.27
2018-11-06T13:57:20.494Z,100515.13
2018-11-06T13:59:49.628Z,100511.84
2018-11-06T14:02:18.652Z,100511.75
2018-11-06T14:04:47.657Z,100516.95
2018-11-06T14:07:16.619Z,100521.73
2018-11-06T14:09:45.591Z,100525.52
2018-11-06T14:12:14.697Z,100522.91
2018-11-06T14:14:43.667Z,100522.64
2018-11-06T14:17:12.616Z,100521.56
2018-11-06T14:19:41.621Z,100526.14
2018-11-06T14:22:10.623Z,100525.59
2018-11-06T14:24:39.585Z,100517.64
2018-11-06T14:27:08.670Z,100517.16
2018-11-06T14:29:37.607Z,100521.75
2018-11-06T14:32:06.670Z,100519.26
2018-11-06T14:34:35.647Z,100522.48
2018-11-06T14:37:04.648Z,100512.16
2018-11-06T14:39:33.604Z,100517.05
2018-11-06T14:42:02.749Z,100515.20
2018-11-06T14:44:31.728Z,100509.81
2018-11-06T14:47:00.702Z,100517.09
2018-11-06T14:49:29.855Z,100518.92
2018-11-06T14:51:58.676Z,100508.25
2018-11-06T14:54:28.219Z,100510.85
2018-11-06T14:56:57.166Z,100509.31
2018-11-06T14:59:26.124Z,100514.06
2018-11-06T15:01:55.070Z,100516.28
2018-11-06T15:04:24.141Z,100520.03
2018-11-06T15:06:53.104Z,100523.83
2018-11-06T15:09:22.063Z,100525.17
2018-11-06T15:11:51.036Z,100524.86
2018-11-06T15:14:20.037Z,100525.34
2018-11-06T15:16:49.080Z,100528.23
2018-11-06T15:19:18.038Z,100528.84
2018-11-06T15:21:47.089Z,100528.00
2018-11-06T15:24:16.048Z,100526.03
2018-11-06T15:26:45.008Z,100537.66
2018-11-06T15:29:13.987Z,100528.61
2018-11-06T15:31:42.937Z,100529.86
2018-11-06T15:34:11.905Z,100537.45
2018-11-06T15:36:40.827Z,100536.35
2018-11-06T15:39:09.895Z,100541.17
2018-11-06T15:41:40.927Z,100540.62
2018-11-06T15:44:09.841Z,100543.31
2018-11-06T15:46:38.820Z,100542.41
2018-11-06T15:49:07.842Z,100540.50
2018-11-06T15:51:36.782Z,100540.52
2018-11-06T15:54:06.043Z,100536.74
2018-11-06T15:56:35.100Z,100540.76
2018-11-06T15:59:04.189Z,100533.95
2018-11-06T16:01:33.220Z,100536.37
2018-11-06T16:04:02.214Z,100542.36
2018-11-06T16:06:31.230Z,100548.02
2018-11-06T16:09:00.160Z,100546.69
2018-11-06T16:11:29.127Z,100550.45
2018-11-06T16:13:58.122Z,100546.17
2018-11-06T16:16:27.272Z,100541.26
2018-11-06T16:18:56.274Z,100545.23
2018-11-06T16:21:25.328Z,100542.75
2018-11-06T16:23:54.279Z,100553.50
2018-11-06T16:26:23.268Z,100547.87
2018-11-06T16:28:52.591Z,100552.73
2018-11-06T16:31:21.583Z,100548.91
2018-11-06T16:33:50.507Z,100554.90
2018-11-06T16:36:19.612Z,100547.55
2018-11-06T16:38:48.596Z,100555.87
2018-11-06T16:41:17.616Z,100551.39
2018-11-06T16:43:46.588Z,100559.16
2018-11-06T16:46:15.509Z,100561.03
2018-11-06T16:48:44.483Z,100563.17
2018-11-06T16:51:13.489Z,100568.95
2018-11-06T16:53:42.446Z,100572.11
2018-11-06T16:56:11.395Z,100576.85
2018-11-06T16:58:40.353Z,100579.84
2018-11-06T17:01:09.500Z,100577.83
2018-11-06T17:03:38.289Z,100577.13
2018-11-06T17:06:11.756Z,100579.52
2018-11-06T17:08:40.741Z,100579.30
2018-11-06T17:11:09.753Z,100578.69
2018-11-06T17:13:38.760Z,100573.28
2018-11-06T17:16:07.749Z,100577.53
2018-11-06T17:18:36.722Z,100568.08
2018-11-06T17:21:05.930Z,100563.83
2018-11-06T17:23:34.947Z,100563.86
2018-11-06T17:26:03.941Z,100567.06
2018-11-06T17:28:32.909Z,100565.30
2018-11-06T17:31:01.915Z,100568.66
2018-11-06T17:33:30.904Z,100555.45
2018-11-06T17:35:59.894Z,100554.12
2018-11-06T17:38:28.863Z,100557.04
2018-11-06T17:40:57.833Z,100559.21
2018-11-06T17:43:26.840Z,100562.63
2018-11-06T17:45:55.882Z,100556.27
2018-11-06T17:48:24.975Z,100564.16
2018-11-06T17:50:54.164Z,100562.42
2018-11-06T17:53:23.201Z,100560.34
2018-11-06T17:55:52.167Z,100555.27
2018-11-06T17:58:21.183Z,100558.72
2018-11-06T18:00:50.250Z,100555.72
2018-11-06T18:03:19.254Z,100547.70
2018-11-06T18:05:48.248Z,100542.58
2018-11-06T18:08:17.257Z,100549.88
2018-11-06T18:10:46.309Z,100552.27
2018-11-06T18:13:15.248Z,100551.20
2018-11-06T18:15:44.289Z,100549.33
2018-11-06T18:18:13.333Z,100539.30
2018-11-06T18:20:42.284Z,100543.58
2018-11-06T18:23:11.297Z,100537.22
2018-11-06T18:25:40.388Z,100541.99
2018-11-06T18:28:09.289Z,100542.63
2018-11-06T18:30:38.324Z,100539.20
2018-11-06T18:33:07.378Z,100543.14
2018-11-06T18:35:36.386Z,100536.76
2018-11-06T18:38:05.512Z,100536.70
2018-11-06T18:40:34.500Z,100535.59
2018-11-06T18:43:03.486Z,100536.11
2018-11-06T18:45:32.523Z,100532.19
2018-11-06T18:48:01.517Z,100532.25
2018-11-06T18:50:30.545Z,100540.45
2018-11-06T18:52:59.598Z,100538.48
2018-11-06T18:55:28.641Z,100534.97
2018-11-06T18:57:57.747Z,100530.49
2018-11-06T19:00:26.679Z,100526.36
2018-11-06T19:02:55.714Z,100529.77
2018-11-06T19:05:25.625Z,100527.70
2018-11-06T19:07:55.236Z,100536.48
2018-11-06T19:10:24.208Z,100536.48
2018-11-06T19:12:53.213Z,100538.79
2018-11-06T19:15:23.357Z,100541.96
2018-11-06T19:17:52.464Z,100539.72
2018-11-06T19:20:21.448Z,100546.06
2018-11-06T19:22:50.448Z,100540.38
2018-11-06T19:25:19.507Z,100545.90
2018-11-06T19:27:48.534Z,100548.99
2018-11-06T19:30:18.922Z,100546.78
2018-11-06T19:32:48.239Z,100554.23
2018-11-06T19:35:17.210Z,100556.09
2018-11-06T19:37:46.251Z,100554.60
2018-11-06T19:40:16.365Z,100548.28
2018-11-06T19:42:46.447Z,100550.13
2018-11-06T19:45:15.592Z,100547.53
2018-11-06T19:47:44.623Z,100552.99
2018-11-06T19:50:15.222Z,100553.78
2018-11-06T19:52:44.279Z,100551.25
2018-11-06T19:55:14.458Z,100551.48
2018-11-06T19:57:43.558Z,100553.19
2018-11-06T20:00:16.336Z,100555.32
2018-11-06T20:02:46.563Z,100548.64
2018-11-06T20:05:18.038Z,100544.62
2018-11-06T20:07:48.125Z,100544.22
2018-11-06T20:10:18.604Z,100542.44
2018-11-06T20:12:48.705Z,100542.59
2018-11-06T20:15:18.022Z,100541.69
2018-11-06T20:17:47.367Z,100544.53
2018-11-06T20:20:19.001Z,100545.28
2018-11-06T20:22:47.969Z,100540.98
2018-11-06T20:25:16.996Z,100543.74
2018-11-06T20:27:46.049Z,100536.63
2018-11-06T20:30:17.156Z,100537.06
2018-11-06T20:32:46.189Z,100532.64
2018-11-06T20:35:15.739Z,100534.34
2018-11-06T20:37:44.817Z,100531.73
2018-11-06T20:40:15.767Z,100536.86
2018-11-06T20:42:45.407Z,100526.23
2018-11-06T20:45:15.564Z,100519.88
2018-11-06T20:47:44.947Z,100515.66
2018-11-06T20:50:15.557Z,100527.46
2018-11-06T20:52:44.651Z,100524.15
2018-11-06T20:55:14.770Z,100523.42
2018-11-06T20:57:43.835Z,100511.42
2018-11-06T21:00:19.180Z,100508.42
2018-11-06T21:02:48.828Z,100505.78
2018-11-06T21:05:17.884Z,100518.09
2018-11-06T21:07:48.318Z,100515.97
2018-11-06T21:10:18.820Z,100511.70
2018-11-06T21:12:47.830Z,100509.48
2018-11-06T21:15:16.873Z,100512.17
2018-11-06T21:17:46.960Z,100507.63
2018-11-06T21:20:16.575Z,100505.46
2018-11-06T21:22:45.538Z,100500.99
2018-11-06T21:25:14.699Z,100493.25
2018-11-06T21:27:44.027Z,100493.68
2018-11-06T21:30:15.507Z,100491.52
2018-11-06T21:32:48.138Z,100496.66
2018-11-06T21:35:17.279Z,100497.73
2018-11-06T21:37:46.244Z,100491.36
2018-11-06T21:40:16.493Z,100496.30
2018-11-06T21:42:46.161Z,100492.81
2018-11-06T21:45:17.285Z,100492.59
2018-11-06T21:47:46.996Z,100491.60
2018-11-06T21:50:16.926Z,100497.01
2018-11-06T21:52:45.993Z,100491.21
2018-11-06T21:55:16.243Z,100497.08
2018-11-06T21:57:45.230Z,100491.04
2018-11-06T22:00:15.570Z,100486.66
2018-11-06T22:02:44.578Z,100488.55
2018-11-06T22:05:14.952Z,100479.95
2018-11-06T22:07:44.320Z,100481.47
2018-11-06T22:10:14.441Z,100483.80
2018-11-06T22:12:44.657Z,100479.19
2018-11-06T22:15:14.747Z,100483.38
2018-11-06T22:17:43.751Z,100476.94
2018-11-06T22:20:14.465Z,100473.58
2018-11-06T22:22:44.422Z,100471.64
2018-11-06T22:25:13.470Z,100472.51
2018-11-06T22:27:42.565Z,100468.88
2018-11-06T22:30:12.857Z,100470.47
2018-11-06T22:32:42.777Z,100473.70
2018-11-06T22:35:13.138Z,100472.47
2018-11-06T22:37:42.216Z,100476.06
2018-11-06T22:40:12.685Z,100478.70
2018-11-06T22:42:41.687Z,100477.55
2018-11-06T22:45:12.885Z,100471.99
2018-11-06T22:47:42.055Z,100476.55
2018-11-06T22:50:16.378Z,100477.07
2018-11-06T22:52:46.065Z,100469.56
2018-11-06T22:55:15.140Z,100471.29
2018-11-06T22:57:44.382Z,100479.62
2018-11-06T23:00:18.167Z,100479.93
2018-11-06T23:02:47.087Z,100477.06
2018-11-06T23:05:16.090Z,100482.44
2018-11-06T23:07:50.331Z,100475.18
2018-11-06T23:10:19.347Z,100478.59
2018-11-06T23:12:48.322Z,100475.97
2018-11-06T23:15:17.367Z,100476.20
2018-11-06T23:17:46.333Z,100481.98
2018-11-06T23:20:15.287Z,100479.89
2018-11-06T23:22:44.272Z,100473.23
2018-11-06T23:25:13.246Z,100480.31
2018-11-06T23:27:43.574Z,100479.06
2018-11-06T23:30:17.136Z,100480.36
2018-11-06T23:32:46.555Z,100480.21
2018-11-06T23:35:15.493Z,100479.25
2018-11-06T23:37:44.552Z,100483.04
2018-11-06T23:40:13.617Z,100483.36
2018-11-06T23:42:42.644Z,100481.60
2018-11-06T23:45:11.641Z,100473.52
2018-11-06T23:47:40.601Z,100475.45
2018-11-06T23:50:10.332Z,100468.25
2018-11-06T23:52:39.636Z,100470.87
2018-11-06T23:55:09.116Z,100475.55
2018-11-06T23:57:38.259Z,100482.64
